Time;durP1;ratioP1;P1;durP2;ratioP2;P2;SDS_P1;SDS_P2;PMS_P1;PMS_P2;Temp;Humidity;BMP_temperature;BMP_pressure;BME280_temperature;BME280_humidity;BME280_pressure;Samples;Min_cycle;Max_cycle;Signal;HPM_P1;HPM_P2
2023/06/03 00:00:41;;;;;;;10.00;5.30;;;;;;;17.81;64.23;100062.83;108017;1258;73832;-79
2023/06/03 00:03:14;;;;;;;11.30;5.30;;;;;;;17.63;64.75;100056.42;108063;1256;72849;-79
2023/06/03 00:05:41;;;;;;;12.50;4.90;;;;;;;17.47;65.42;100061.61;107974;1255;72423;-80
2023/06/03 00:08:08;;;;;;;12.20;5.10;;;;;;;17.34;65.87;100067.42;108031;1255;60644;-81
2023/06/03 00:10:36;;;;;;;11.70;4.60;;;;;;;17.25;66.38;100066.70;108002;1257;60348;-76
2023/06/03 00:13:02;;;;;;;10.80;5.10;;;;;;;17.20;66.74;100070.38;108081;1255;73667;-79
2023/06/03 00:15:29;;;;;;;11.00;5.10;;;;;;;17.16;67.03;100081.89;108002;1256;72769;-80
2023/06/03 00:17:58;;;;;;;7.80;4.60;;;;;;;17.14;67.16;100092.89;108078;1256;72491;-79
2023/06/03 00:20:25;;;;;;;9.00;5.20;;;;;;;17.10;67.20;100100.84;108073;1254;61836;-80
2023/06/03 00:22:52;;;;;;;8.80;4.30;;;;;;;17.06;67.20;100100.10;108027;1256;60913;-79
2023/06/03 00:25:18;;;;;;;13.30;5.10;;;;;;;17.03;67.11;100105.35;108058;1254;72471;-79
2023/06/03 00:27:49;;;;;;;10.40;4.90;;;;;;;17.00;66.88;100112.30;108123;1256;73714;-81
2023/06/03 00:30:16;;;;;;;9.70;5.00;;;;;;;16.98;66.77;100113.43;108080;1256;72724;-79
2023/06/03 00:32:45;;;;;;;10.30;4.10;;;;;;;16.97;66.70;100117.77;108041;1256;61882;-79
2023/06/03 00:35:12;;;;;;;11.40;3.80;;;;;;;16.97;66.42;100133.00;107976;1254;60330;-78
2023/06/03 00:37:38;;;;;;;7.40;4.00;;;;;;;16.95;66.36;100133.60;108189;1254;74300;-78
2023/06/03 00:40:06;;;;;;;10.40;4.00;;;;;;;16.93;66.01;100129.17;108056;1254;71123;-79
2023/06/03 00:42:33;;;;;;;8.50;3.70;;;;;;;17.01;65.65;100132.52;108026;1256;71538;-79
2023/06/03 00:45:01;;;;;;;9.60;4.00;;;;;;;17.02;65.23;100130.57;108091;1254;61304;-80
2023/06/03 00:47:28;;;;;;;12.10;3.90;;;;;;;17.00;64.91;100131.69;107914;1256;60332;-80
2023/06/03 00:49:55;;;;;;;10.30;3.80;;;;;;;16.98;64.75;100132.55;107992;1256;73888;-79
2023/06/03 00:52:23;;;;;;;8.30;3.90;;;;;;;16.96;64.51;100133.20;107888;1254;72750;-79
2023/06/03 00:54:51;;;;;;;9.80;3.90;;;;;;;16.92;64.38;100132.76;108159;1254;72673;-79
2023/06/03 00:57:20;;;;;;;8.80;3.70;;;;;;;16.88;64.38;100133.79;107961;1256;61770;-80
2023/06/03 00:59:46;;;;;;;11.80;3.90;;;;;;;16.84;64.13;100129.51;108185;1256;59379;-79
2023/06/03 01:02:14;;;;;;;9.00;3.70;;;;;;;16.83;64.18;100136.39;108106;1256;73949;-78
2023/06/03 01:04:42;;;;;;;12.10;4.30;;;;;;;16.79;64.27;100139.58;108244;1256;72558;-79
2023/06/03 01:07:21;;;;;;;8.80;3.60;;;;;;;16.66;64.59;100149.30;108089;1254;72238;-79
2023/06/03 01:10:19;;;;;;;10.10;3.70;;;;;;;16.64;64.82;100149.44;108027;1256;62019;-79
2023/06/03 01:12:51;;;;;;;9.80;3.90;;;;;;;16.65;64.84;100158.44;107999;1256;60314;-80
2023/06/03 01:15:21;;;;;;;13.30;4.00;;;;;;;16.63;64.68;100152.80;107932;1255;73882;-79
2023/06/03 01:17:49;;;;;;;9.80;4.00;;;;;;;16.63;64.62;100154.02;107903;1255;71539;-79
2023/06/03 01:20:16;;;;;;;10.50;3.90;;;;;;;16.61;64.53;100151.55;108053;1256;72471;-81
2023/06/03 01:22:46;;;;;;;7.10;3.70;;;;;;;16.64;64.43;100156.51;108011;1256;60696;-81
2023/06/03 01:25:15;;;;;;;8.20;3.70;;;;;;;16.64;64.34;100159.69;108082;1254;60426;-81
2023/06/03 01:27:44;;;;;;;9.30;3.90;;;;;;;16.61;64.21;100162.55;108118;1256;73779;-81
2023/06/03 01:30:13;;;;;;;7.30;3.50;;;;;;;16.59;64.18;100165.38;108159;1258;72007;-80
2023/06/03 01:32:41;;;;;;;8.90;3.70;;;;;;;16.59;64.21;100170.48;107983;1256;72751;-80
2023/06/03 01:35:09;;;;;;;8.40;3.60;;;;;;;16.59;64.14;100176.70;108103;1256;61895;-81
2023/06/03 01:37:36;;;;;;;8.20;3.50;;;;;;;16.59;64.05;100187.73;108010;1254;60043;-79
2023/06/03 01:40:04;;;;;;;14.50;4.20;;;;;;;16.58;64.07;100188.27;107998;1254;73779;-80
2023/06/03 01:42:34;;;;;;;10.90;3.90;;;;;;;16.56;64.01;100196.11;108167;1256;72090;-80
2023/06/03 01:45:04;;;;;;;8.30;3.90;;;;;;;16.52;63.77;100203.54;108047;1254;72537;-81
2023/06/03 01:47:31;;;;;;;7.40;3.80;;;;;;;16.50;63.53;100206.46;108010;1256;62027;-81
2023/06/03 01:49:58;;;;;;;10.10;3.30;;;;;;;16.47;63.40;100210.63;108050;1254;60187;-82
2023/06/03 01:52:27;;;;;;;7.30;3.40;;;;;;;16.44;63.26;100207.84;108290;1256;73632;-80
2023/06/03 01:54:54;;;;;;;6.90;3.10;;;;;;;16.40;63.11;100211.62;107952;1254;73140;-80
2023/06/03 01:57:21;;;;;;;9.70;3.20;;;;;;;16.39;63.17;100217.75;107967;1256;72414;-81
2023/06/03 01:59:49;;;;;;;10.40;3.30;;;;;;;16.38;63.13;100219.02;108023;1259;61989;-80
2023/06/03 02:02:15;;;;;;;9.10;3.20;;;;;;;16.37;63.08;100218.66;108051;1256;60272;-81
2023/06/03 02:04:44;;;;;;;5.40;2.80;;;;;;;16.32;62.93;100214.30;108081;1254;73767;-79
2023/06/03 02:07:13;;;;;;;5.20;2.50;;;;;;;16.27;62.87;100205.06;108127;1254;72422;-80
2023/06/03 02:09:40;;;;;;;6.20;2.50;;;;;;;16.23;62.45;100205.40;108108;1258;72670;-80
2023/06/03 02:12:08;;;;;;;8.30;2.70;;;;;;;16.17;62.21;100209.70;108038;1256;61761;-80
2023/06/03 02:14:37;;;;;;;7.90;2.80;;;;;;;16.15;62.25;100209.92;108007;1256;60445;-80
2023/06/03 02:17:06;;;;;;;6.10;2.70;;;;;;;16.12;62.24;100225.34;107992;1256;74035;-80
2023/06/03 02:19:34;;;;;;;5.20;2.40;;;;;;;16.07;62.27;100230.02;107997;1254;72613;-78
2023/06/03 02:22:02;;;;;;;7.10;2.40;;;;;;;16.03;62.28;100234.95;108116;1256;72734;-80
2023/06/03 02:24:31;;;;;;;4.70;2.40;;;;;;;15.98;62.25;100242.28;107976;1259;60700;-80
2023/06/03 02:27:01;;;;;;;4.30;2.60;;;;;;;15.90;62.39;100246.09;108056;1258;60531;-81
2023/06/03 02:29:29;;;;;;;5.60;2.40;;;;;;;15.83;62.60;100251.96;108395;1254;72632;-81
2023/06/03 02:31:56;;;;;;;6.10;2.80;;;;;;;15.77;62.63;100254.98;107996;1256;71412;-79
2023/06/03 02:34:23;;;;;;;6.10;3.00;;;;;;;15.71;62.78;100259.77;108053;1255;72470;-80
2023/06/03 02:36:53;;;;;;;7.20;3.00;;;;;;;15.66;63.21;100260.65;108190;1255;61776;-79
2023/06/03 02:39:20;;;;;;;8.20;3.00;;;;;;;15.60;63.45;100261.30;108109;1256;59719;-80
2023/06/03 02:41:47;;;;;;;7.60;3.30;;;;;;;15.54;63.54;100274.11;108046;1254;73833;-80
2023/06/03 02:44:17;;;;;;;7.30;3.30;;;;;;;15.50;63.68;100281.92;107753;1256;72773;-80
2023/06/03 02:46:45;;;;;;;8.90;3.20;;;;;;;15.46;63.95;100292.60;108088;1258;72594;-81
2023/06/03 02:49:12;;;;;;;5.00;3.20;;;;;;;15.43;63.91;100293.64;107853;1255;61949;-78
2023/06/03 02:51:40;;;;;;;6.80;3.50;;;;;;;15.38;63.91;100297.64;108579;1256;60016;-79
2023/06/03 02:54:07;;;;;;;7.60;3.30;;;;;;;15.34;63.81;100301.05;107910;1256;72684;-79
2023/06/03 02:56:33;;;;;;;8.80;3.50;;;;;;;15.27;63.84;100316.02;108009;1255;71687;-80
2023/06/03 02:59:00;;;;;;;8.20;3.30;;;;;;;15.21;63.83;100326.13;107909;1259;72661;-80
2023/06/03 03:01:28;;;;;;;7.80;3.10;;;;;;;15.13;63.98;100328.44;108003;1258;61804;-80
2023/06/03 03:03:56;;;;;;;8.80;2.90;;;;;;;15.09;64.07;100334.31;107968;1254;60367;-80
2023/06/03 03:06:24;;;;;;;5.50;2.50;;;;;;;15.06;64.14;100336.41;107925;1256;73682;-80
2023/06/03 03:08:54;;;;;;;;;;;;;;;15.01;64.10;100342.77;108021;1256;72630;-80
2023/06/03 03:11:32;;;;;;;4.20;2.80;;;;;;;14.95;64.05;100345.92;107950;1256;71438;-79
2023/06/03 03:13:59;;;;;;;5.20;2.30;;;;;;;14.89;63.95;100350.53;108338;1257;61971;-78
2023/06/03 03:16:28;;;;;;;4.00;2.40;;;;;;;14.84;63.86;100364.05;108051;1256;60551;-80
2023/06/03 03:18:56;;;;;;;4.60;2.20;;;;;;;14.77;63.85;100367.20;108050;1255;73726;-79
2023/06/03 03:21:22;;;;;;;6.20;2.60;;;;;;;14.74;63.75;100375.05;107907;1256;72821;-79
2023/06/03 03:23:49;;;;;;;3.20;2.00;;;;;;;14.69;63.45;100376.13;107929;1258;72509;-79
2023/06/03 03:26:21;;;;;;;5.20;2.50;;;;;;;14.63;63.16;100379.11;108059;1258;61970;-79
2023/06/03 03:28:48;;;;;;;3.80;2.20;;;;;;;14.55;62.86;100380.11;107866;1254;60404;-79
2023/06/03 03:31:16;;;;;;;3.50;2.30;;;;;;;14.51;62.74;100384.98;107973;1257;73914;-79
2023/06/03 03:33:44;;;;;;;5.20;2.40;;;;;;;14.50;62.67;100383.64;108193;1255;72922;-79
2023/06/03 03:36:22;;;;;;;6.90;2.70;;;;;;;14.48;62.35;100392.38;108050;1258;72418;-79
2023/06/03 03:39:00;;;;;;;4.00;2.40;;;;;;;14.46;62.08;100391.48;108055;1254;62064;-80
2023/06/03 03:41:28;;;;;;;3.80;2.40;;;;;;;14.44;62.11;100391.34;107976;1254;60316;-79
2023/06/03 03:43:54;;;;;;;6.00;2.50;;;;;;;14.41;61.87;100403.80;107919;1254;73878;-80
2023/06/03 03:46:21;;;;;;;6.40;2.50;;;;;;;14.37;61.99;100402.64;107996;1257;71557;-80
2023/06/03 03:48:49;;;;;;;7.00;2.60;;;;;;;14.35;62.17;100405.16;108043;1254;71432;-80
2023/06/03 03:51:16;;;;;;;3.20;2.20;;;;;;;14.32;62.07;100403.41;108037;1254;62160;-80
2023/06/03 03:53:45;;;;;;;6.50;2.50;;;;;;;14.28;61.86;100404.30;108203;1254;60313;-80
2023/06/03 03:56:22;;;;;;;5.20;2.60;;;;;;;14.24;61.99;100398.59;108083;1254;73823;-81
2023/06/03 03:58:53;;;;;;;6.70;2.50;;;;;;;14.22;61.99;100405.77;108043;1258;72367;-81
2023/06/03 04:01:23;;;;;;;6.00;2.10;;;;;;;14.18;61.62;100417.63;108073;1257;72683;-80
2023/06/03 04:03:58;;;;;;;4.00;1.80;;;;;;;14.13;61.18;100416.50;108063;1254;60441;-80
2023/06/03 04:06:36;;;;;;;3.20;1.90;;;;;;;14.06;60.73;100417.11;108009;1254;60344;-81
2023/06/03 04:09:04;;;;;;;4.80;1.90;;;;;;;14.00;60.72;100424.66;107978;1254;74038;-80
2023/06/03 04:11:51;;;;;;;3.40;1.90;;;;;;;13.99;60.75;100429.73;108044;1255;71689;-80
2023/06/03 04:14:25;;;;;;;3.20;1.60;;;;;;;14.03;60.92;100437.17;108008;1255;72444;-80
2023/06/03 04:16:56;;;;;;;4.00;2.10;;;;;;;14.06;60.88;100439.50;108009;1257;60402;-80
2023/06/03 04:19:36;;;;;;;3.70;1.90;;;;;;;14.05;60.54;100447.79;108058;1254;60332;-80
2023/06/03 04:22:08;;;;;;;4.10;2.00;;;;;;;14.01;60.23;100454.16;108101;1258;73833;-79
2023/06/03 04:24:36;;;;;;;3.60;1.70;;;;;;;13.97;60.40;100455.90;108066;1254;72509;-79
2023/06/03 04:27:03;;;;;;;3.70;2.10;;;;;;;13.96;60.58;100454.69;107965;1255;72526;-80
2023/06/03 04:29:30;;;;;;;3.30;2.10;;;;;;;13.97;60.47;100468.15;107980;1258;60548;-79
2023/06/03 04:31:58;;;;;;;4.70;2.00;;;;;;;13.91;60.02;100474.81;108023;1254;60417;-80
2023/06/03 04:34:36;;;;;;;5.70;2.00;;;;;;;13.82;59.88;100483.47;108021;1254;73685;-80
2023/06/03 04:37:03;;;;;;;3.60;1.90;;;;;;;13.77;60.15;100482.64;107972;1260;72630;-80
2023/06/03 04:39:30;;;;;;;3.20;1.90;;;;;;;13.75;60.18;100487.75;108014;1254;72557;-79
2023/06/03 04:42:02;;;;;;;4.30;1.80;;;;;;;13.72;59.86;100505.13;107999;1254;62350;-80
2023/06/03 04:44:31;;;;;;;3.20;1.60;;;;;;;13.61;59.22;100499.93;108090;1254;60429;-82
2023/06/03 04:47:00;;;;;;;5.10;2.00;;;;;;;13.47;59.27;100512.36;108037;1255;73669;-79
2023/06/03 04:49:27;;;;;;;3.90;1.70;;;;;;;13.39;59.18;100516.75;108091;1254;72716;-79
2023/06/03 04:51:54;;;;;;;3.10;1.60;;;;;;;13.32;59.11;100524.40;108123;1259;72765;-80
2023/06/03 04:54:23;;;;;;;3.00;1.50;;;;;;;13.31;59.08;100522.05;108071;1254;60410;-80
2023/06/03 04:56:50;;;;;;;3.10;1.60;;;;;;;13.36;59.09;100530.19;108065;1254;60330;-80
2023/06/03 04:59:18;;;;;;;2.90;1.70;;;;;;;13.50;58.36;100540.52;108038;1257;73714;-80
2023/06/03 05:01:50;;;;;;;3.60;1.80;;;;;;;13.51;57.82;100539.16;108037;1260;72654;-79
2023/06/03 05:04:19;;;;;;;2.60;1.50;;;;;;;13.43;57.85;100539.59;107979;1254;71161;-80
2023/06/03 05:06:48;;;;;;;2.70;1.40;;;;;;;13.39;57.42;100553.39;108087;1254;61915;-79
2023/06/03 05:09:15;;;;;;;3.10;1.30;;;;;;;13.34;57.43;100550.64;108067;1257;60458;-79
2023/06/03 05:11:44;;;;;;;3.50;1.70;;;;;;;13.32;57.19;100555.14;108112;1255;73734;-79
2023/06/03 05:14:11;;;;;;;3.80;1.70;;;;;;;13.27;56.99;100560.05;108117;1254;72743;-79
2023/06/03 05:16:39;;;;;;;4.30;1.70;;;;;;;13.26;57.20;100559.67;108100;1258;71489;-80
2023/06/03 05:19:07;;;;;;;4.80;2.00;;;;;;;13.32;57.27;100557.94;107882;1260;62096;-81
2023/06/03 05:21:34;;;;;;;3.70;2.00;;;;;;;13.42;57.33;100565.23;108052;1255;60349;-82
2023/06/03 05:24:01;;;;;;;4.20;1.80;;;;;;;13.51;57.26;100570.89;108116;1255;73875;-82
2023/06/03 05:26:28;;;;;;;3.30;1.90;;;;;;;13.60;57.00;100576.86;107960;1260;72445;-82
2023/06/03 05:28:55;;;;;;;4.10;1.60;;;;;;;13.69;56.87;100582.61;107910;1258;72665;-80
2023/06/03 05:31:23;;;;;;;4.30;1.90;;;;;;;13.74;56.37;100587.85;108028;1254;61664;-81
2023/06/03 05:33:50;;;;;;;3.20;1.80;;;;;;;13.71;55.95;100596.71;107907;1260;60424;-80
2023/06/03 05:36:20;;;;;;;2.80;1.60;;;;;;;13.68;55.93;100596.14;108114;1259;73661;-79
2023/06/03 05:38:47;;;;;;;4.60;1.90;;;;;;;13.71;55.96;100595.48;107884;1254;72449;-81
2023/06/03 05:41:15;;;;;;;3.20;1.80;;;;;;;13.73;55.81;100597.40;108057;1254;72769;-80
2023/06/03 05:43:42;;;;;;;4.20;1.70;;;;;;;13.74;55.84;100601.21;108121;1254;60359;-80
2023/06/03 05:46:08;;;;;;;5.50;2.00;;;;;;;13.75;55.84;100603.71;108045;1260;60799;-79
2023/06/03 05:48:36;;;;;;;3.30;1.30;;;;;;;13.79;55.25;100609.45;107952;1255;73762;-79
2023/06/03 05:51:05;;;;;;;2.90;1.50;;;;;;;13.82;54.98;100612.50;108317;1254;72558;-80
2023/06/03 05:53:32;;;;;;;4.50;1.50;;;;;;;13.84;54.32;100621.77;108061;1256;72704;-80
2023/06/03 05:56:02;;;;;;;2.90;1.40;;;;;;;13.87;53.75;100613.77;108023;1254;60497;-80
2023/06/03 05:58:32;;;;;;;3.70;1.40;;;;;;;13.92;53.41;100614.70;108084;1254;60323;-79
2023/06/03 06:00:59;;;;;;;2.50;1.20;;;;;;;13.99;53.43;100613.95;108095;1256;72737;-79
2023/06/03 06:03:26;;;;;;;3.70;1.40;;;;;;;14.14;53.84;100629.60;108069;1259;72767;-79
2023/06/03 06:05:55;;;;;;;4.10;1.60;;;;;;;14.26;52.92;100632.41;108094;1254;72478;-79
2023/06/03 06:08:22;;;;;;;6.30;1.60;;;;;;;14.32;52.38;100630.49;107996;1254;60414;-80
2023/06/03 06:10:49;;;;;;;3.40;1.30;;;;;;;14.38;52.15;100630.77;107981;1254;60430;-81
2023/06/03 06:13:16;;;;;;;3.10;1.40;;;;;;;14.42;51.58;100642.95;108043;1257;73872;-78
2023/06/03 06:16:00;;;;;;;3.10;1.40;;;;;;;14.41;50.50;100624.36;107922;1254;72564;-80
2023/06/03 06:18:29;;;;;;;3.40;1.40;;;;;;;14.43;50.51;100643.90;107993;1254;71153;-79
2023/06/03 06:20:57;;;;;;;3.30;1.40;;;;;;;14.49;50.25;100633.92;107930;1256;60438;-81
2023/06/03 06:23:25;;;;;;;3.50;1.40;;;;;;;14.56;49.99;100642.92;108131;1257;60560;-80
2023/06/03 06:25:53;;;;;;;2.40;1.20;;;;;;;14.62;49.93;100637.48;108141;1254;72679;-79
2023/06/03 06:28:26;;;;;;;4.70;1.50;;;;;;;14.74;49.84;100641.42;108010;1254;72133;-80
2023/06/03 06:30:54;;;;;;;4.80;1.20;;;;;;;14.85;48.96;100640.31;108273;1254;72296;-80
2023/06/03 06:33:22;;;;;;;3.50;1.50;;;;;;;14.91;48.07;100644.48;108074;1254;60492;-80
2023/06/03 06:35:49;;;;;;;3.00;1.40;;;;;;;14.95;47.45;100653.70;108079;1254;61119;-79
2023/06/03 06:38:17;;;;;;;2.80;1.10;;;;;;;14.97;47.02;100651.10;108008;1255;73662;-79
2023/06/03 06:40:45;;;;;;;3.60;1.30;;;;;;;15.06;47.43;100654.30;108131;1254;72607;-80
2023/06/03 06:43:21;;;;;;;5.30;1.30;;;;;;;15.18;47.21;100661.77;108113;1254;71477;-79
2023/06/03 06:45:57;;;;;;;2.90;1.20;;;;;;;15.26;45.97;100667.98;108080;1254;60326;-79
2023/06/03 06:48:24;;;;;;;2.80;1.10;;;;;;;15.25;45.10;100666.96;108014;1254;60340;-81
2023/06/03 06:50:56;;;;;;;3.20;1.10;;;;;;;15.28;44.68;100675.45;108052;1254;73537;-81
2023/06/03 06:53:27;;;;;;;4.30;1.40;;;;;;;15.33;44.61;100669.90;108099;1254;72706;-80
2023/06/03 06:56:16;;;;;;;4.00;1.40;;;;;;;15.38;44.16;100680.88;107932;1254;71373;-81
2023/06/03 06:59:03;;;;;;;2.90;1.00;;;;;;;15.48;44.29;100673.51;107999;1254;60419;-81
2023/06/03 07:01:31;;;;;;;4.80;1.20;;;;;;;15.56;43.96;100669.70;108042;1254;60519;-80
2023/06/03 07:03:57;;;;;;;3.30;1.00;;;;;;;15.65;43.98;100675.20;108024;1255;73559;-81
2023/06/03 07:06:25;;;;;;;4.80;1.10;;;;;;;15.75;43.77;100673.38;108049;1254;71717;-80
2023/06/03 07:08:56;;;;;;;6.30;1.50;;;;;;;15.84;43.36;100673.48;108110;1254;71282;-79
2023/06/03 07:11:25;;;;;;;3.70;1.20;;;;;;;15.88;42.68;100684.30;108138;1254;60437;-81
2023/06/03 07:13:55;;;;;;;6.90;1.40;;;;;;;15.92;41.62;100694.76;108127;1260;60400;-80
2023/06/03 07:16:22;;;;;;;4.40;1.10;;;;;;;15.91;40.87;100679.79;108017;1254;73825;-81
2023/06/03 07:18:50;;;;;;;3.10;1.00;;;;;;;15.88;40.10;100680.33;108146;1254;71255;-80
2023/06/03 07:21:23;;;;;;;2.40;1.20;;;;;;;15.87;39.97;100679.38;108132;1254;71710;-79
2023/06/03 07:23:50;;;;;;;3.30;1.20;;;;;;;15.89;40.30;100674.05;108007;1254;60588;-80
2023/06/03 07:26:18;;;;;;;4.50;0.90;;;;;;;15.97;39.99;100685.32;108118;1254;60439;-80
2023/06/03 07:28:46;;;;;;;3.30;1.30;;;;;;;16.02;40.09;100683.81;107840;1254;214103;-80
2023/06/03 07:31:14;;;;;;;6.30;1.40;;;;;;;16.04;40.34;100689.44;108133;1254;72726;-80
2023/06/03 07:33:52;;;;;;;2.40;0.90;;;;;;;16.12;40.39;100692.17;108125;1254;72655;-79
2023/06/03 07:36:26;;;;;;;4.20;1.10;;;;;;;16.21;40.37;100713.63;108181;1254;60328;-79
2023/06/03 07:39:06;;;;;;;2.40;0.80;;;;;;;16.30;39.65;100711.27;108122;1254;60149;-80
2023/06/03 07:41:37;;;;;;;4.10;1.20;;;;;;;16.39;39.33;100709.32;108177;1254;73610;-80
2023/06/03 07:44:06;;;;;;;1.90;0.90;;;;;;;16.46;38.68;100716.02;108135;1254;72783;-81
2023/06/03 07:46:42;;;;;;;3.00;1.00;;;;;;;16.53;38.00;100724.69;108195;1254;71106;-80
2023/06/03 07:49:10;;;;;;;3.80;0.80;;;;;;;16.56;38.07;100726.86;108170;1254;61160;-79
2023/06/03 07:51:41;;;;;;;2.70;1.00;;;;;;;16.59;37.77;100736.31;108166;1254;60403;-81
2023/06/03 07:54:08;;;;;;;3.90;0.90;;;;;;;16.66;37.67;100729.48;108168;1254;74040;-80
2023/06/03 07:56:37;;;;;;;2.10;0.90;;;;;;;16.70;37.61;100735.55;108194;1254;72832;-79
2023/06/03 07:59:04;;;;;;;2.80;1.30;;;;;;;16.76;37.98;100732.89;108121;1254;72443;-82
2023/06/03 08:01:31;;;;;;;2.80;1.00;;;;;;;16.84;37.69;100736.49;108113;1254;60409;-80
2023/06/03 08:04:23;;;;;;;4.70;1.00;;;;;;;16.93;37.40;100733.27;108033;1254;60459;-80
2023/06/03 08:06:52;;;;;;;3.20;1.00;;;;;;;16.99;37.28;100737.55;108192;1254;73011;-80
2023/06/03 08:09:29;;;;;;;3.40;1.20;;;;;;;17.09;37.29;100737.33;108147;1254;72621;-80
2023/06/03 08:11:57;;;;;;;3.80;1.10;;;;;;;17.25;36.61;100738.31;108114;1254;72606;-80
2023/06/03 08:14:25;;;;;;;2.50;0.90;;;;;;;17.37;36.08;100737.70;108043;1254;60426;-79
2023/06/03 08:16:53;;;;;;;2.10;0.90;;;;;;;17.42;34.78;100737.94;108115;1254;60334;-80
2023/06/03 08:19:20;;;;;;;3.00;1.20;;;;;;;17.46;34.91;100735.91;108096;1254;73815;-79
2023/06/03 08:21:48;;;;;;;3.20;1.00;;;;;;;17.54;35.13;100751.86;108157;1254;71362;-80
2023/06/03 08:24:14;;;;;;;5.20;1.10;;;;;;;17.61;34.07;100751.80;108090;1254;71434;-79
2023/06/03 08:26:44;;;;;;;2.20;0.70;;;;;;;17.64;33.93;100757.27;108096;1254;60545;-81
2023/06/03 08:29:12;;;;;;;2.40;0.90;;;;;;;17.69;33.78;100749.54;108139;1254;60489;-78
2023/06/03 08:31:39;;;;;;;3.20;1.00;;;;;;;17.66;32.98;100756.02;108140;1254;72761;-81
2023/06/03 08:34:06;;;;;;;3.90;1.10;;;;;;;17.66;33.22;100763.86;108147;1254;72680;-79
2023/06/03 08:36:33;;;;;;;3.70;1.10;;;;;;;17.70;33.50;100767.51;108156;1254;72530;-80
2023/06/03 08:39:00;;;;;;;1.80;0.80;;;;;;;17.78;33.56;100762.52;108140;1254;60584;-80
2023/06/03 08:41:39;;;;;;;4.60;1.10;;;;;;;17.90;34.13;100765.85;108172;1254;60345;-80
2023/06/03 08:44:47;;;;;;;3.20;0.90;;;;;;;17.99;33.34;100776.10;108165;1254;73765;-79
2023/06/03 08:47:25;;;;;;;3.20;1.10;;;;;;;18.05;33.76;100768.14;108188;1254;72749;-79
2023/06/03 08:50:13;;;;;;;3.00;1.10;;;;;;;18.09;33.89;100764.82;108114;1254;72623;-79
2023/06/03 08:52:40;;;;;;;3.10;0.80;;;;;;;18.16;33.96;100762.30;108128;1254;60305;-78
2023/06/03 08:55:07;;;;;;;2.00;0.80;;;;;;;18.28;33.90;100768.52;108124;1254;60440;-79
2023/06/03 08:57:35;;;;;;;3.30;0.80;;;;;;;18.34;32.75;100769.27;107912;1254;73786;-79
2023/06/03 09:00:02;;;;;;;2.60;1.10;;;;;;;18.37;33.13;100772.70;108170;1258;72529;-79
2023/06/03 09:02:29;;;;;;;2.30;1.00;;;;;;;18.44;32.43;100776.34;108039;1254;72805;-80
2023/06/03 09:04:56;;;;;;;5.50;0.90;;;;;;;18.46;31.38;100788.96;108185;1254;60371;-79
2023/06/03 09:07:24;;;;;;;2.40;0.90;;;;;;;18.43;31.40;100780.48;108174;1254;60292;-79
2023/06/03 09:09:53;;;;;;;2.50;0.80;;;;;;;18.41;30.72;100784.52;107866;1254;73768;-79
2023/06/03 09:12:20;;;;;;;2.90;0.90;;;;;;;18.39;30.07;100793.01;108089;1254;72748;-80
2023/06/03 09:14:47;;;;;;;2.60;0.70;;;;;;;18.35;30.56;100786.34;108138;1254;71418;-80
2023/06/03 09:17:13;;;;;;;3.10;1.00;;;;;;;18.32;31.49;100778.56;108152;1254;60418;-81
2023/06/03 09:19:40;;;;;;;2.30;1.00;;;;;;;18.40;31.52;100793.52;108090;1254;59451;-80
2023/06/03 09:22:07;;;;;;;3.50;1.00;;;;;;;18.52;30.63;100801.05;108135;1258;73627;-79
2023/06/03 09:24:34;;;;;;;3.20;0.80;;;;;;;18.59;30.17;100799.45;107855;1255;72519;-79
2023/06/03 09:27:01;;;;;;;2.60;0.70;;;;;;;18.64;30.08;100797.55;108034;1254;72399;-80
2023/06/03 09:29:28;;;;;;;1.20;0.60;;;;;;;18.66;31.09;100795.66;108178;1254;60168;-79
2023/06/03 09:31:55;;;;;;;1.10;0.70;;;;;;;18.68;30.52;100791.48;108127;1254;60458;-79
2023/06/03 09:34:22;;;;;;;3.50;0.90;;;;;;;18.67;30.41;100794.60;108049;1254;73800;-80
2023/06/03 09:36:49;;;;;;;1.10;0.70;;;;;;;18.66;30.56;100800.10;108161;1254;72713;-80
2023/06/03 09:39:18;;;;;;;2.60;0.90;;;;;;;18.73;30.62;100797.85;108089;1254;71296;-79
2023/06/03 09:41:47;;;;;;;2.00;0.70;;;;;;;18.75;29.29;100800.29;107864;1254;60401;-80
2023/06/03 09:44:14;;;;;;;2.20;0.90;;;;;;;18.74;29.31;100799.55;108099;1254;60199;-78
2023/06/03 09:46:44;;;;;;;2.30;0.80;;;;;;;18.77;29.36;100797.61;108144;1254;73616;-79
2023/06/03 09:49:13;;;;;;;1.80;0.70;;;;;;;18.79;29.13;100798.25;107916;1254;72510;-79
2023/06/03 09:51:48;;;;;;;4.20;0.90;;;;;;;18.81;29.71;100803.02;108151;1254;71394;-79
2023/06/03 09:54:16;;;;;;;2.50;0.80;;;;;;;18.87;29.69;100807.02;108123;1254;59833;-81
2023/06/03 09:56:47;;;;;;;1.60;0.70;;;;;;;18.93;29.27;100807.79;108177;1254;60560;-80
2023/06/03 09:59:19;;;;;;;2.30;0.80;;;;;;;19.05;29.71;100807.23;108155;1254;72350;-79
2023/06/03 10:01:47;;;;;;;3.10;0.90;;;;;;;19.20;29.23;100795.72;108136;1254;72736;-80
2023/06/03 10:04:40;;;;;;;4.60;1.20;;;;;;;19.30;29.14;100803.59;107978;1254;71225;-81
2023/06/03 10:07:14;;;;;;;2.00;0.80;;;;;;;19.42;28.65;100807.92;108012;1254;60435;-79
2023/06/03 10:09:47;;;;;;;1.70;0.60;;;;;;;19.54;28.61;100818.10;107910;1254;60332;-81
2023/06/03 10:12:16;;;;;;;3.70;0.90;;;;;;;19.57;27.60;100820.88;107940;1254;73868;-80
2023/06/03 10:14:47;;;;;;;1.70;0.70;;;;;;;19.58;28.04;100815.70;108023;1254;72349;-79
2023/06/03 10:17:15;;;;;;;4.00;0.80;;;;;;;19.61;27.36;100818.77;108035;1258;73865;-79
2023/06/03 10:19:43;;;;;;;2.30;0.80;;;;;;;19.61;26.93;100817.42;107984;1254;60434;-79
2023/06/03 10:22:16;;;;;;;2.40;0.70;;;;;;;19.61;26.93;100810.55;108081;1254;60361;-80
2023/06/03 10:24:44;;;;;;;2.00;0.70;;;;;;;19.66;27.34;100806.59;108190;1254;73892;-80
2023/06/03 10:27:12;;;;;;;2.10;0.60;;;;;;;19.77;28.02;100812.75;108142;1254;72657;-80
2023/06/03 10:29:39;;;;;;;3.30;0.80;;;;;;;19.84;26.62;100822.41;108323;1254;72437;-80
2023/06/03 10:32:07;;;;;;;1.70;0.70;;;;;;;19.86;26.48;100810.43;108067;1254;60435;-80
2023/06/03 10:34:41;;;;;;;1.50;0.70;;;;;;;19.87;26.46;100810.50;108131;1254;60448;-79
2023/06/03 10:37:09;;;;;;;2.00;0.60;;;;;;;19.94;26.83;100812.11;108126;1254;73931;-80
2023/06/03 10:39:36;;;;;;;2.60;0.70;;;;;;;20.03;26.87;100810.90;108148;1254;72826;-80
2023/06/03 10:42:05;;;;;;;4.00;1.20;;;;;;;20.08;27.13;100819.76;108159;1258;72711;-79
2023/06/03 10:44:35;;;;;;;;;;;;;;;20.12;26.84;100816.27;108146;1254;60457;-79
2023/06/03 10:47:10;;;;;;;2.90;0.90;;;;;;;20.18;26.45;100818.13;108121;1254;59934;-79
2023/06/03 10:49:40;;;;;;;3.70;1.00;;;;;;;20.13;26.46;100823.36;108107;1254;73599;-80
2023/06/03 10:52:36;;;;;;;1.90;0.80;;;;;;;20.06;26.35;100808.85;108155;1254;71596;-79
2023/06/03 10:55:27;;;;;;;2.50;0.70;;;;;;;20.05;25.83;100815.37;108018;1254;71370;-79
2023/06/03 10:58:04;;;;;;;2.70;0.70;;;;;;;20.04;25.57;100827.84;108026;1254;60393;-80
2023/06/03 11:01:03;;;;;;;2.50;0.70;;;;;;;20.08;25.72;100820.84;108051;1254;60350;-80
2023/06/03 11:03:32;;;;;;;4.40;0.70;;;;;;;20.17;26.01;100822.44;108035;1254;73822;-80
2023/06/03 11:06:18;;;;;;;2.00;0.70;;;;;;;20.27;25.99;100819.27;108152;1254;72634;-81
2023/06/03 11:09:09;;;;;;;2.90;0.60;;;;;;;20.36;25.46;100830.44;108072;1254;72822;-80
2023/06/03 11:12:02;;;;;;;1.70;0.70;;;;;;;20.35;24.77;100832.45;108124;1254;60822;-82
2023/06/03 11:14:30;;;;;;;2.30;0.70;;;;;;;20.30;24.76;100830.83;108154;1254;60448;-80
2023/06/03 11:17:01;;;;;;;5.80;1.00;;;;;;;20.32;25.25;100836.48;108058;1254;73873;-80
2023/06/03 11:19:37;;;;;;;2.60;0.60;;;;;;;20.37;24.91;100837.84;108055;1254;72445;-80
2023/06/03 11:22:07;;;;;;;2.10;0.70;;;;;;;20.44;25.14;100828.66;108071;1258;71397;-77
2023/06/03 11:24:43;;;;;;;3.20;0.80;;;;;;;20.53;25.05;100830.52;108096;1254;61463;-84
2023/06/03 11:27:23;;;;;;;3.70;0.80;;;;;;;20.56;25.36;100834.61;108043;1254;60374;-80
2023/06/03 11:29:50;;;;;;;4.80;1.00;;;;;;;20.56;25.99;100833.20;108150;1254;73999;-81